Time;durP1;ratioP1;P1;durP2;ratioP2;P2;SDS_P1;SDS_P2;PMS_P1;PMS_P2;Temp;Humidity;BMP_temperature;BMP_pressure;BME280_temperature;BME280_humidity;BME280_pressure;Samples;Min_cycle;Max_cycle;Signal;HPM_P1;HPM_P2
2023/06/19 00:01:31;;;;;;;9.93;6.63;;;14.50;99.90;;;;;;4996032;28;20220;-87
2023/06/19 00:04:11;;;;;;;15.10;5.47;;;14.40;99.90;;;;;;5014049;28;20173;-89
2023/06/19 00:06:37;;;;;;;8.50;5.85;;;14.40;99.90;;;;;;5013382;28;20164;-88
2023/06/19 00:09:03;;;;;;;10.52;5.68;;;14.40;99.90;;;;;;5013699;28;20161;-89
2023/06/19 00:11:29;;;;;;;8.90;5.65;;;14.30;99.90;;;;;;5013496;28;20259;-89
2023/06/19 00:13:55;;;;;;;7.30;5.38;;;14.30;99.90;;;;;;4995847;28;20582;-89
2023/06/19 00:16:21;;;;;;;9.23;5.55;;;14.30;99.90;;;;;;5013789;28;20212;-90
2023/06/19 00:18:46;;;;;;;10.20;5.82;;;14.20;99.90;;;;;;5013446;28;20676;-90
2023/06/19 00:21:12;;;;;;;8.95;5.25;;;14.20;99.90;;;;;;5013374;28;20185;-89
2023/06/19 00:23:38;;;;;;;10.85;5.45;;;14.20;99.90;;;;;;4996101;28;20216;-89
2023/06/19 00:26:04;;;;;;;7.97;4.88;;;14.10;99.90;;;;;;5013832;28;20238;-89
2023/06/19 00:28:30;;;;;;;13.30;6.85;;;14.10;99.90;;;;;;5013656;28;20247;-89
2023/06/19 00:30:56;;;;;;;7.88;5.18;;;14.10;99.90;;;;;;5012829;28;20599;-89
2023/06/19 00:33:22;;;;;;;11.95;7.25;;;14.00;99.90;;;;;;5013347;28;20185;-90
2023/06/19 00:35:51;;;;;;;7.90;5.53;;;14.00;99.90;;;;;;4995711;28;20185;-89
2023/06/19 00:38:17;;;;;;;9.75;5.95;;;14.00;99.90;;;;;;4995983;28;20185;-89
2023/06/19 00:40:42;;;;;;;8.25;5.57;;;14.00;99.90;;;;;;4995549;28;20529;-89
2023/06/19 00:43:08;;;;;;;8.90;5.97;;;14.00;99.90;;;;;;4996027;28;20181;-89
2023/06/19 00:45:33;;;;;;;9.38;5.70;;;13.90;99.90;;;;;;5013571;28;20169;-88
2023/06/19 00:48:00;;;;;;;8.05;5.72;;;13.90;99.90;;;;;;5013092;28;20227;-89
2023/06/19 00:50:29;;;;;;;9.35;5.80;;;13.90;99.90;;;;;;4996843;28;20224;-89
2023/06/19 00:52:55;;;;;;;11.65;5.90;;;13.90;99.90;;;;;;4995483;28;20199;-90
2023/06/19 00:55:22;;;;;;;8.40;5.50;;;13.90;99.90;;;;;;5014347;28;20255;-89
2023/06/19 00:57:49;;;;;;;10.05;5.55;;;13.90;99.90;;;;;;4999351;28;20173;-89
2023/06/19 01:00:15;;;;;;;12.60;5.63;;;13.80;99.90;;;;;;5017009;28;20180;-88
2023/06/19 01:02:41;;;;;;;9.75;5.63;;;13.80;99.90;;;;;;5015546;28;20177;-87
2023/06/19 01:05:06;;;;;;;8.70;5.85;;;13.80;99.90;;;;;;5016772;28;20169;-88
2023/06/19 01:07:50;;;;;;;7.53;5.50;;;13.80;99.90;;;;;;5016675;28;20231;-88
2023/06/19 01:10:30;;;;;;;8.40;5.45;;;13.80;99.90;;;;;;4998952;28;20204;-88
2023/06/19 01:13:00;;;;;;;8.93;5.70;;;13.80;99.90;;;;;;5016440;28;20168;-88
2023/06/19 01:15:26;;;;;;;8.90;5.80;;;13.70;99.90;;;;;;5016348;28;20169;-88
2023/06/19 01:17:55;;;;;;;12.40;5.50;;;13.70;99.90;;;;;;4998759;28;20184;-89
2023/06/19 01:20:20;;;;;;;9.55;6.10;;;13.70;99.90;;;;;;5016442;28;20633;-89
2023/06/19 01:22:46;;;;;;;12.13;6.15;;;13.70;99.90;;;;;;5016541;28;20177;-89
2023/06/19 01:25:14;;;;;;;8.90;5.38;;;13.60;99.90;;;;;;4998963;28;20169;-89
2023/06/19 01:27:42;;;;;;;7.95;5.65;;;13.60;99.90;;;;;;5016317;28;20225;-89
2023/06/19 01:30:11;;;;;;;8.07;5.30;;;13.60;99.90;;;;;;5016143;28;20193;-89
2023/06/19 01:33:02;;;;;;;13.20;5.78;;;13.50;99.90;;;;;;5016121;28;20173;-89
2023/06/19 01:35:29;;;;;;;7.78;5.05;;;13.40;99.90;;;;;;5016627;28;20173;-90
2023/06/19 01:37:55;;;;;;;10.80;6.22;;;13.40;99.90;;;;;;5016006;28;20173;-90
2023/06/19 01:40:25;;;;;;;7.78;5.60;;;13.40;99.90;;;;;;5016075;28;20184;-89
2023/06/19 01:42:54;;;;;;;7.85;5.32;;;13.40;99.90;;;;;;5015843;28;20196;-88
2023/06/19 01:45:20;;;;;;;8.63;5.90;;;13.30;99.90;;;;;;5016226;28;20621;-88
2023/06/19 01:47:46;;;;;;;7.45;4.70;;;13.30;99.90;;;;;;5015868;28;20192;-86
2023/06/19 01:50:12;;;;;;;9.45;5.68;;;13.40;99.90;;;;;;4982032;28;20209;-88
2023/06/19 01:52:40;;;;;;;7.97;5.57;;;13.30;99.90;;;;;;5015616;28;20180;-88
2023/06/19 01:55:06;;;;;;;13.35;5.25;;;13.20;99.90;;;;;;5014540;28;20178;-88
2023/06/19 01:57:33;;;;;;;7.00;4.97;;;13.20;99.90;;;;;;5015729;28;20177;-88
2023/06/19 01:59:58;;;;;;;6.63;4.95;;;13.10;99.90;;;;;;4998098;28;20181;-88
2023/06/19 02:02:24;;;;;;;9.38;5.88;;;13.10;99.90;;;;;;5015694;28;20260;-88
2023/06/19 02:04:49;;;;;;;8.88;5.60;;;13.10;99.90;;;;;;5015711;28;20256;-88
2023/06/19 02:07:15;;;;;;;8.48;5.82;;;13.10;99.90;;;;;;4997210;28;20260;-88
2023/06/19 02:09:41;;;;;;;6.72;4.55;;;13.10;99.90;;;;;;5015466;28;20642;-88
2023/06/19 02:12:08;;;;;;;11.27;5.22;;;13.00;99.90;;;;;;4981838;28;20235;-88
2023/06/19 02:14:33;;;;;;;12.60;5.15;;;13.10;99.90;;;;;;4998250;28;20265;-87
2023/06/19 02:16:59;;;;;;;7.15;4.88;;;13.00;99.90;;;;;;5015253;28;20235;-87
2023/06/19 02:19:25;;;;;;;7.60;5.28;;;13.00;99.90;;;;;;5015601;28;20185;-87
2023/06/19 02:21:50;;;;;;;7.15;4.25;;;13.00;99.90;;;;;;5014928;28;20181;-86
2023/06/19 02:24:16;;;;;;;12.23;5.35;;;12.90;99.90;;;;;;4981756;28;20633;-88
2023/06/19 02:26:43;;;;;;;7.22;4.35;;;12.90;99.90;;;;;;5014960;28;20228;-88
2023/06/19 02:29:09;;;;;;;6.75;4.85;;;12.80;99.90;;;;;;5015117;28;20171;-88
2023/06/19 02:31:35;;;;;;;10.98;4.70;;;12.80;99.90;;;;;;5015299;28;20184;-88
2023/06/19 02:34:01;;;;;;;6.93;4.72;;;12.90;99.90;;;;;;5035404;28;20177;-87
2023/06/19 02:36:29;;;;;;;6.05;4.47;;;12.80;99.90;;;;;;5022817;28;20164;-86
2023/06/19 02:38:55;;;;;;;6.60;5.25;;;12.80;99.90;;;;;;5038968;28;20189;-85
2023/06/19 02:41:21;;;;;;;7.10;4.90;;;12.80;99.90;;;;;;5001334;28;20240;-88
2023/06/19 02:43:47;;;;;;;7.13;4.85;;;12.90;99.90;;;;;;5016510;28;20573;-88
2023/06/19 02:46:13;;;;;;;8.63;5.05;;;12.90;99.90;;;;;;5015041;28;20177;-88
2023/06/19 02:48:38;;;;;;;9.05;4.93;;;12.90;99.90;;;;;;5014541;28;20571;-88
2023/06/19 02:51:04;;;;;;;7.55;5.18;;;12.90;99.90;;;;;;5014293;28;20213;-89
2023/06/19 02:53:29;;;;;;;7.68;4.80;;;13.00;99.90;;;;;;4997377;28;20184;-88
2023/06/19 02:55:55;;;;;;;9.00;5.05;;;13.00;99.90;;;;;;4996819;28;20185;-87
2023/06/19 02:58:21;;;;;;;6.90;4.97;;;13.00;99.90;;;;;;5014558;28;20173;-89
2023/06/19 03:00:47;;;;;;;7.43;4.80;;;12.90;99.90;;;;;;4997068;28;20215;-89
2023/06/19 03:03:12;;;;;;;9.02;5.22;;;12.90;99.90;;;;;;5014104;28;20177;-89
2023/06/19 03:05:38;;;;;;;10.93;4.80;;;13.00;99.90;;;;;;5014233;28;20588;-90
2023/06/19 03:08:04;;;;;;;13.23;5.63;;;13.00;99.90;;;;;;5013807;28;20593;-89
2023/06/19 03:10:31;;;;;;;11.75;5.15;;;13.10;99.90;;;;;;5014176;28;20325;-89
2023/06/19 03:12:58;;;;;;;6.57;4.95;;;13.10;99.90;;;;;;5014708;28;20173;-89
2023/06/19 03:15:24;;;;;;;8.35;4.72;;;13.10;99.90;;;;;;4996861;28;20232;-90
2023/06/19 03:17:50;;;;;;;8.52;5.20;;;13.10;99.90;;;;;;5014535;28;20173;-92
2023/06/19 03:20:15;;;;;;;11.30;6.32;;;13.20;99.90;;;;;;5014261;28;20211;-90
2023/06/19 03:22:42;;;;;;;8.38;5.07;;;13.20;99.90;;;;;;5013952;28;20177;-90
2023/06/19 03:25:08;;;;;;;8.60;4.90;;;13.30;99.90;;;;;;5013997;28;20177;-90
2023/06/19 03:27:34;;;;;;;12.45;5.38;;;13.30;99.90;;;;;;4996455;28;20235;-90
2023/06/19 03:30:00;;;;;;;9.27;5.40;;;13.30;99.90;;;;;;5016605;28;20172;-88
2023/06/19 03:32:26;;;;;;;7.75;5.20;;;13.30;99.90;;;;;;5002583;28;20189;-90
2023/06/19 03:34:52;;;;;;;8.43;4.30;;;13.40;99.90;;;;;;5015296;28;20192;-90
2023/06/19 03:37:17;;;;;;;7.60;4.97;;;13.50;99.90;;;;;;5009613;28;20711;-90
2023/06/19 03:39:43;;;;;;;8.13;5.03;;;13.60;99.90;;;;;;5007142;28;20205;-88
2023/06/19 03:42:09;;;;;;;8.25;5.07;;;13.60;99.90;;;;;;4993757;28;20192;-89
2023/06/19 03:44:34;;;;;;;8.68;5.82;;;13.70;99.90;;;;;;5012343;28;20185;-91
2023/06/19 03:47:00;;;;;;;7.18;5.15;;;13.70;99.90;;;;;;5012844;28;20185;-90
2023/06/19 03:49:26;;;;;;;11.27;6.05;;;13.70;99.90;;;;;;4994483;28;20181;-91
2023/06/19 03:51:54;;;;;;;13.43;5.30;;;13.80;99.90;;;;;;5012617;28;20189;-91
2023/06/19 03:54:20;;;;;;;10.05;5.43;;;13.80;99.90;;;;;;4990623;28;20546;-91
2023/06/19 03:56:45;;;;;;;9.38;5.07;;;13.90;99.90;;;;;;4989021;28;20197;-92
2023/06/19 03:59:11;;;;;;;9.52;5.03;;;14.00;99.90;;;;;;5001799;28;20191;-91
2023/06/19 04:01:37;;;;;;;6.45;5.28;;;14.00;99.90;;;;;;5011259;28;20632;-90
2023/06/19 04:04:03;;;;;;;6.47;4.88;;;14.10;99.90;;;;;;5011010;28;20192;-90
2023/06/19 04:06:28;;;;;;;12.35;5.30;;;14.20;99.90;;;;;;5011310;28;20224;-90
2023/06/19 04:08:54;;;;;;;6.93;4.93;;;14.30;99.90;;;;;;4975186;28;20244;-90
2023/06/19 04:11:20;;;;;;;7.30;4.97;;;14.30;99.90;;;;;;5002408;28;20203;-89
2023/06/19 04:13:46;;;;;;;6.35;4.75;;;14.30;99.90;;;;;;5013030;28;20181;-90
2023/06/19 04:16:12;;;;;;;11.23;5.50;;;14.40;99.90;;;;;;4974436;28;20193;-90
2023/06/19 04:18:38;;;;;;;9.60;5.07;;;14.50;99.90;;;;;;4992943;28;20185;-92
2023/06/19 04:21:04;;;;;;;10.00;5.18;;;14.70;99.90;;;;;;4993986;28;20263;-92
2023/06/19 04:23:29;;;;;;;8.73;5.63;;;14.80;99.90;;;;;;5008428;28;20639;-91
2023/06/19 04:25:55;;;;;;;7.57;4.43;;;14.90;99.90;;;;;;4994577;28;20258;-90
2023/06/19 04:28:21;;;;;;;12.57;5.47;;;15.00;99.90;;;;;;4993942;28;20261;-91
2023/06/19 04:30:46;;;;;;;8.90;5.63;;;15.00;99.90;;;;;;5008794;28;20221;-92
2023/06/19 04:33:12;;;;;;;6.93;4.70;;;15.10;99.90;;;;;;4998779;28;20198;-92
2023/06/19 04:35:39;;;;;;;6.85;4.97;;;15.20;99.90;;;;;;5011432;28;20553;-93
2023/06/19 04:38:06;;;;;;;6.82;4.43;;;15.30;99.90;;;;;;5006367;28;20229;-90
2023/06/19 04:40:33;;;;;;;9.85;5.93;;;15.40;99.90;;;;;;4988019;28;20773;-92
2023/06/19 04:43:02;;;;;;;8.02;4.55;;;15.50;99.90;;;;;;4996873;28;20185;-92
2023/06/19 04:45:28;;;;;;;7.07;5.13;;;15.60;99.90;;;;;;5013289;28;20177;-92
2023/06/19 04:47:54;;;;;;;7.70;5.03;;;15.80;99.90;;;;;;5010171;28;20193;-93
2023/06/19 04:50:20;;;;;;;7.03;4.25;;;15.90;99.90;;;;;;4997874;28;20193;-92
2023/06/19 04:52:47;;;;;;;10.52;3.75;;;16.00;99.90;;;;;;4998561;28;20193;-93
2023/06/19 04:55:13;;;;;;;7.22;4.10;;;16.20;99.90;;;;;;5017126;28;20210;-93
2023/06/19 04:57:38;;;;;;;10.00;4.40;;;16.30;99.90;;;;;;5017368;28;20224;-94
2023/06/19 05:00:09;;;;;;;5.53;3.80;;;16.40;99.90;;;;;;5017208;28;20213;-93
2023/06/19 05:02:35;;;;;;;8.20;3.42;;;16.50;99.90;;;;;;5017116;28;20177;-94
2023/06/19 05:05:03;;;;;;;5.32;4.03;;;16.60;99.90;;;;;;5016936;28;20516;-94
2023/06/19 05:07:32;;;;;;;4.22;3.45;;;16.70;99.90;;;;;;4999912;28;20177;-93
2023/06/19 05:09:58;;;;;;;4.13;3.25;;;16.90;99.90;;;;;;5017180;28;20231;-94
2023/06/19 05:12:24;;;;;;;7.05;3.63;;;17.00;99.90;;;;;;5016920;28;20182;-94
2023/06/19 05:14:50;;;;;;;4.95;3.22;;;17.10;99.90;;;;;;5017188;28;20669;-94
2023/06/19 05:17:16;;;;;;;5.80;3.42;;;17.30;99.90;;;;;;5016585;28;20189;-93
2023/06/19 05:19:41;;;;;;;4.53;2.85;;;17.40;99.90;;;;;;4999197;28;20215;-94
2023/06/19 05:22:07;;;;;;;4.03;3.00;;;17.40;99.90;;;;;;5017073;28;20186;-93
2023/06/19 05:24:33;;;;;;;4.07;3.00;;;17.40;99.90;;;;;;5016699;28;20177;-94
2023/06/19 05:26:59;;;;;;;4.45;3.50;;;17.50;99.90;;;;;;5016897;28;20248;-93
2023/06/19 05:29:25;;;;;;;4.60;3.10;;;17.60;99.90;;;;;;4983320;28;20181;-94
2023/06/19 05:31:50;;;;;;;4.65;3.30;;;17.70;99.90;;;;;;5016333;28;20183;-94
2023/06/19 05:34:17;;;;;;;4.05;3.10;;;17.70;99.90;;;;;;5016881;28;20260;-93
2023/06/19 05:36:44;;;;;;;4.88;3.42;;;17.80;99.90;;;;;;4983280;28;20533;-91
2023/06/19 05:39:10;;;;;;;4.15;3.30;;;17.90;99.90;;;;;;5016691;28;20184;-94
2023/06/19 05:41:36;;;;;;;4.03;3.35;;;17.90;99.90;;;;;;4981476;28;20308;-94
2023/06/19 05:44:02;;;;;;;4.20;3.78;;;17.90;99.90;;;;;;5016495;28;20173;-94
2023/06/19 05:46:27;;;;;;;4.38;3.58;;;18.00;99.90;;;;;;5016135;28;20263;-93
2023/06/19 05:48:54;;;;;;;3.78;3.13;;;18.00;99.90;;;;;;5016275;28;20573;-93
2023/06/19 05:51:20;;;;;;;4.45;3.30;;;18.10;99.90;;;;;;5016254;28;20626;-94
2023/06/19 05:53:46;;;;;;;3.97;3.50;;;18.10;99.90;;;;;;4998957;28;20180;-94
2023/06/19 05:56:12;;;;;;;7.13;3.45;;;18.30;99.90;;;;;;5016288;28;20185;-93
2023/06/19 05:58:39;;;;;;;6.60;4.15;;;18.30;99.90;;;;;;4998905;28;20755;-93
2023/06/19 06:01:04;;;;;;;4.97;4.03;;;18.50;99.90;;;;;;4984716;28;20220;-94
2023/06/19 06:03:30;;;;;;;5.80;3.58;;;18.60;99.90;;;;;;5016656;28;20665;-93
2023/06/19 06:06:02;;;;;;;5.05;4.00;;;18.70;99.90;;;;;;4998902;28;20204;-94
2023/06/19 06:08:31;;;;;;;5.45;4.45;;;18.50;99.90;;;;;;5017700;28;20181;-93
2023/06/19 06:10:57;;;;;;;6.63;3.80;;;18.50;99.90;;;;;;4999891;28;20181;-92
2023/06/19 06:13:23;;;;;;;4.97;3.70;;;18.60;99.90;;;;;;5015925;28;20184;-93
2023/06/19 06:15:49;;;;;;;4.35;3.60;;;18.60;99.90;;;;;;5019094;28;20181;-93
2023/06/19 06:18:15;;;;;;;5.38;3.25;;;18.70;99.90;;;;;;4998772;28;20181;-93
2023/06/19 06:20:40;;;;;;;6.68;3.72;;;18.80;99.90;;;;;;4998118;28;20710;-93
2023/06/19 06:23:06;;;;;;;5.82;4.00;;;18.80;99.90;;;;;;5015803;28;20208;-93
2023/06/19 06:25:32;;;;;;;4.68;3.50;;;19.00;99.90;;;;;;4998190;28;20629;-93
2023/06/19 06:27:57;;;;;;;3.78;3.30;;;19.10;99.90;;;;;;4997964;28;20245;-94
2023/06/19 06:30:23;;;;;;;7.03;3.53;;;19.10;99.90;;;;;;4981611;28;20185;-92
2023/06/19 06:32:49;;;;;;;6.85;3.85;;;19.10;99.90;;;;;;4981931;28;20252;-92
2023/06/19 06:35:15;;;;;;;5.68;3.00;;;19.10;99.90;;;;;;5015530;28;20662;-92
2023/06/19 06:37:41;;;;;;;5.28;3.72;;;19.20;99.90;;;;;;4997754;28;20185;-92
2023/06/19 06:40:11;;;;;;;4.05;3.38;;;19.20;99.90;;;;;;5015129;28;20256;-91
2023/06/19 06:42:37;;;;;;;5.47;4.20;;;19.20;99.90;;;;;;5015045;28;20284;-92
2023/06/19 06:45:05;;;;;;;5.00;3.80;;;19.30;99.90;;;;;;4982155;28;20192;-92
2023/06/19 06:47:30;;;;;;;5.00;3.65;;;19.50;99.90;;;;;;5014744;28;20658;-92
2023/06/19 06:49:56;;;;;;;5.53;3.90;;;19.50;99.90;;;;;;5015237;28;20224;-92
2023/06/19 06:52:22;;;;;;;8.65;3.60;;;19.60;99.90;;;;;;4997801;28;20184;-92
2023/06/19 06:54:47;;;;;;;6.55;4.13;;;19.60;99.90;;;;;;4997303;28;20219;-92
2023/06/19 06:57:13;;;;;;;6.32;3.70;;;19.60;99.90;;;;;;4998496;28;20177;-93
2023/06/19 06:59:39;;;;;;;7.32;4.30;;;19.60;99.90;;;;;;4997371;28;20187;-92
2023/06/19 07:02:04;;;;;;;5.25;4.07;;;19.70;99.90;;;;;;4997920;28;20186;-92
2023/06/19 07:04:30;;;;;;;5.53;4.20;;;19.70;99.90;;;;;;4999751;28;20181;-94
2023/06/19 07:06:55;;;;;;;5.82;4.07;;;19.70;99.90;;;;;;5016964;28;20189;-93
2023/06/19 07:09:21;;;;;;;6.63;3.78;;;19.70;99.90;;;;;;4997532;28;20182;-94
2023/06/19 07:11:47;;;;;;;5.25;4.22;;;19.80;99.90;;;;;;4997153;28;20752;-93
2023/06/19 07:14:13;;;;;;;6.20;3.70;;;19.90;99.90;;;;;;5014496;28;20299;-93
2023/06/19 07:16:38;;;;;;;3.65;3.33;;;20.00;99.90;;;;;;4997171;28;20232;-94
2023/06/19 07:19:04;;;;;;;5.88;3.80;;;20.00;99.90;;;;;;5015138;28;20678;-94
2023/06/19 07:21:30;;;;;;;5.78;3.70;;;20.00;99.90;;;;;;5014881;28;20658;-93
2023/06/19 07:23:57;;;;;;;5.35;3.63;;;20.00;99.90;;;;;;4996889;28;20200;-94
2023/06/19 07:26:23;;;;;;;5.63;3.72;;;20.10;99.90;;;;;;4996731;28;20189;-93
2023/06/19 07:28:49;;;;;;;4.93;3.80;;;20.10;99.90;;;;;;5014014;28;20173;-95
2023/06/19 07:31:16;;;;;;;4.60;3.70;;;20.20;99.90;;;;;;4996836;28;20271;-93
2023/06/19 07:33:42;;;;;;;8.13;3.17;;;20.20;99.90;;;;;;5019100;28;20181;-94
2023/06/19 07:36:08;;;;;;;5.57;4.00;;;20.30;99.90;;;;;;5001112;28;20181;-93
2023/06/19 07:38:38;;;;;;;3.50;3.17;;;20.20;99.90;;;;;;5001312;28;20176;-91
2023/06/19 07:41:03;;;;;;;5.07;3.97;;;20.20;99.90;;;;;;4990839;28;20691;-93
2023/06/19 07:43:29;;;;;;;5.30;4.20;;;20.30;99.90;;;;;;4996892;28;20255;-94
2023/06/19 07:45:54;;;;;;;4.93;4.20;;;20.40;99.90;;;;;;5013728;28;20200;-94
2023/06/19 07:48:20;;;;;;;4.75;3.70;;;20.60;99.90;;;;;;5014199;28;20539;-94
2023/06/19 07:50:46;;;;;;;5.40;4.43;;;20.70;99.90;;;;;;4996650;28;20188;-94
2023/06/19 07:53:11;;;;;;;6.25;4.05;;;20.60;99.90;;;;;;4996671;28;20185;-94
2023/06/19 07:55:37;;;;;;;5.43;4.22;;;20.80;99.90;;;;;;5014134;28;20204;-93
2023/06/19 07:58:02;;;;;;;6.90;4.35;;;20.90;99.90;;;;;;4997102;28;20188;-94
2023/06/19 08:00:28;;;;;;;7.82;3.67;;;21.00;99.90;;;;;;5013876;28;20229;-93
2023/06/19 08:02:54;;;;;;;4.28;3.65;;;21.00;99.90;;;;;;5013869;28;20763;-93
2023/06/19 08:05:20;;;;;;;4.70;3.72;;;20.90;99.90;;;;;;4997193;28;20277;-95
2023/06/19 08:07:45;;;;;;;5.30;4.18;;;21.10;99.90;;;;;;5014065;28;20181;-92
2023/06/19 08:10:11;;;;;;;5.30;4.07;;;21.20;99.90;;;;;;4996236;28;20181;-94
2023/06/19 08:12:37;;;;;;;6.38;4.35;;;21.30;99.90;;;;;;4996361;28;20622;-93
2023/06/19 08:15:02;;;;;;;5.47;4.45;;;21.30;99.90;;;;;;4996639;28;20181;-93
2023/06/19 08:17:28;;;;;;;3.83;3.42;;;21.50;99.90;;;;;;4980222;28;20267;-93
2023/06/19 08:19:54;;;;;;;6.97;3.90;;;21.40;99.90;;;;;;5013718;28;20216;-93
2023/06/19 08:22:19;;;;;;;5.30;3.75;;;21.30;99.90;;;;;;4998868;28;20181;-93
2023/06/19 08:24:45;;;;;;;4.72;3.80;;;21.20;99.90;;;;;;5015154;28;20641;-93
2023/06/19 08:27:11;;;;;;;3.85;3.22;;;21.20;99.90;;;;;;4997907;28;20229;-92
2023/06/19 08:29:36;;;;;;;5.55;4.18;;;21.30;99.90;;;;;;5014839;28;20239;-94
2023/06/19 08:32:02;;;;;;;4.93;3.15;;;21.50;99.90;;;;;;4997598;28;20181;-93
2023/06/19 08:34:28;;;;;;;4.30;3.47;;;21.60;99.90;;;;;;4981405;28;20243;-93
2023/06/19 08:36:53;;;;;;;4.72;3.17;;;21.60;99.90;;;;;;4981951;28;20584;-92
2023/06/19 08:39:22;;;;;;;4.45;3.20;;;21.60;99.90;;;;;;5016077;28;20212;-93
2023/06/19 08:41:47;;;;;;;5.53;3.60;;;21.40;99.90;;;;;;5004625;28;20209;-93
2023/06/19 08:44:13;;;;;;;4.20;3.67;;;21.50;99.90;;;;;;5026736;28;20178;-93
2023/06/19 08:46:41;;;;;;;5.20;3.70;;;21.70;99.90;;;;;;5027294;28;20185;-94
2023/06/19 08:49:10;;;;;;;3.55;3.25;;;21.90;99.90;;;;;;5025506;28;20172;-91
2023/06/19 08:51:36;;;;;;;7.78;3.95;;;22.00;99.90;;;;;;5010827;28;20233;-92
2023/06/19 08:54:04;;;;;;;3.88;3.15;;;22.20;99.90;;;;;;5036875;28;20169;-91
2023/06/19 08:56:37;;;;;;;4.43;3.70;;;22.50;99.90;;;;;;5037955;28;20166;-91
2023/06/19 08:59:17;;;;;;;3.70;3.28;;;22.80;99.90;;;;;;5020604;28;20181;-88
2023/06/19 09:01:54;;;;;;;6.97;4.47;;;22.60;99.90;;;;;;5026406;28;20255;-89
2023/06/19 09:04:28;;;;;;;5.13;3.95;;;22.40;99.90;;;;;;5003482;28;20208;-92
2023/06/19 09:07:00;;;;;;;8.40;4.10;;;22.60;99.90;;;;;;5023506;28;20162;-91
2023/06/19 09:09:26;;;;;;;3.70;3.35;;;22.70;99.90;;;;;;5017557;28;20534;-92
2023/06/19 09:12:01;;;;;;;4.20;3.60;;;22.80;99.90;;;;;;5003163;28;20181;-91
2023/06/19 09:14:33;;;;;;;5.63;3.17;;;23.00;99.90;;;;;;5024383;28;20164;-92
2023/06/19 09:17:01;;;;;;;3.92;2.88;;;23.20;99.90;;;;;;5028783;28;20177;-93
2023/06/19 09:19:26;;;;;;;3.90;3.33;;;23.40;99.90;;;;;;5026255;28;20191;-93
2023/06/19 09:21:52;;;;;;;3.92;3.53;;;23.60;99.90;;;;;;5005753;28;20268;-93
2023/06/19 09:24:18;;;;;;;4.93;3.53;;;23.60;98.70;;;;;;5023025;28;20178;-91
2023/06/19 09:26:43;;;;;;;13.40;3.67;;;23.50;99.90;;;;;;5003232;28;20237;-92
2023/06/19 09:29:15;;;;;;;4.78;3.53;;;23.40;99.90;;;;;;5005506;28;20212;-93
2023/06/19 09:31:41;;;;;;;4.40;3.75;;;23.10;99.90;;;;;;5022243;28;20181;-91
2023/06/19 09:34:08;;;;;;;3.88;3.40;;;22.80;99.90;;;;;;5022132;28;20181;-92
2023/06/19 09:36:35;;;;;;;3.63;3.10;;;22.60;99.90;;;;;;5005714;28;20181;-93
2023/06/19 09:39:03;;;;;;;3.92;3.10;;;22.70;99.60;;;;;;5020092;28;20170;-93
2023/06/19 09:41:30;;;;;;;4.05;3.42;;;22.90;99.30;;;;;;5019016;28;20209;-94
2023/06/19 09:43:59;;;;;;;4.22;3.72;;;23.00;98.90;;;;;;5018672;28;20247;-91
2023/06/19 09:46:31;;;;;;;3.92;3.45;;;23.10;97.60;;;;;;5021635;28;20177;-93
2023/06/19 09:49:01;;;;;;;3.65;3.15;;;23.40;99.60;;;;;;5001166;28;20579;-92
2023/06/19 09:51:42;;;;;;;3.95;3.50;;;23.60;96.80;;;;;;5017822;28;20185;-91
2023/06/19 09:54:09;;;;;;;4.05;3.28;;;24.00;97.50;;;;;;5017399;28;20180;-93
2023/06/19 09:56:35;;;;;;;4.30;3.40;;;24.10;95.70;;;;;;5000190;28;20181;-91
2023/06/19 09:59:02;;;;;;;5.03;3.45;;;24.40;97.00;;;;;;5000093;28;20178;-91
2023/06/19 10:01:31;;;;;;;6.60;5.18;;;24.50;95.00;;;;;;5000752;28;20687;-91
2023/06/19 10:04:07;;;;;;;4.15;3.47;;;24.70;95.20;;;;;;5002842;28;20208;-90
2023/06/19 10:06:43;;;;;;;5.50;4.05;;;24.20;93.50;;;;;;5019450;28;20260;-91
2023/06/19 10:09:09;;;;;;;4.43;3.47;;;23.90;94.90;;;;;;5018966;28;20169;-89
2023/06/19 10:11:51;;;;;;;5.20;4.20;;;23.50;95.60;;;;;;5018973;28;20181;-92
2023/06/19 10:14:19;;;;;;;4.80;3.75;;;23.20;95.50;;;;;;5018366;28;20204;-92
2023/06/19 10:16:45;;;;;;;3.88;2.92;;;23.00;96.10;;;;;;5018388;28;20204;-92
2023/06/19 10:19:16;;;;;;;3.83;3.17;;;22.90;94.00;;;;;;5017002;28;20169;-90
2023/06/19 10:21:49;;;;;;;4.80;3.47;;;22.80;95.10;;;;;;5022826;28;20212;-92
2023/06/19 10:24:19;;;;;;;3.75;3.35;;;22.70;95.10;;;;;;5019770;28;20154;-93
2023/06/19 10:26:57;;;;;;;3.47;3.17;;;22.70;95.40;;;;;;5018713;28;20632;-92
2023/06/19 10:29:23;;;;;;;4.15;3.47;;;22.60;95.60;;;;;;5000203;28;20647;-91
2023/06/19 10:31:49;;;;;;;3.83;3.22;;;22.70;95.90;;;;;;5001387;28;20191;-92
2023/06/19 10:34:15;;;;;;;3.53;3.15;;;23.00;95.30;;;;;;4999828;28;20181;-93
2023/06/19 10:36:41;;;;;;;4.20;3.10;;;23.30;95.00;;;;;;5001154;28;20227;-93
2023/06/19 10:39:07;;;;;;;4.45;3.50;;;23.60;92.80;;;;;;5018960;28;20173;-93
2023/06/19 10:41:32;;;;;;;4.72;3.90;;;23.90;92.50;;;;;;5001060;28;20217;-93
2023/06/19 10:43:58;;;;;;;4.32;3.67;;;24.00;93.10;;;;;;5016648;28;20173;-92
2023/06/19 10:46:28;;;;;;;3.92;2.83;;;24.30;92.40;;;;;;5000251;28;20184;-93
2023/06/19 10:48:59;;;;;;;3.33;2.75;;;24.20;90.00;;;;;;5019428;28;20162;-94
2023/06/19 10:51:25;;;;;;;3.53;3.22;;;24.20;89.40;;;;;;5016755;28;20193;-93
2023/06/19 10:53:56;;;;;;;4.43;3.30;;;24.50;90.10;;;;;;4999356;28;20217;-93
2023/06/19 10:56:23;;;;;;;4.55;3.13;;;24.70;86.50;;;;;;5016637;28;20231;-94
2023/06/19 10:58:56;;;;;;;3.88;3.03;;;24.80;86.60;;;;;;4998954;28;20638;-93
2023/06/19 11:01:22;;;;;;;3.53;2.30;;;25.00;85.80;;;;;;4984260;28;20220;-93
2023/06/19 11:03:48;;;;;;;3.88;2.80;;;25.10;84.90;;;;;;5016280;28;20174;-93
2023/06/19 11:06:20;;;;;;;3.63;3.00;;;25.30;81.60;;;;;;5015094;28;20184;-91
2023/06/19 11:08:52;;;;;;;3.25;2.92;;;25.30;80.40;;;;;;5015258;28;20161;-93
2023/06/19 11:11:20;;;;;;;6.40;2.60;;;25.30;80.50;;;;;;4997817;28;20193;-93
2023/06/19 11:13:45;;;;;;;2.95;2.30;;;25.40;82.70;;;;;;4998673;28;20264;-93
2023/06/19 11:16:11;;;;;;;3.22;2.55;;;25.30;75.30;;;;;;4997524;28;20201;-90
2023/06/19 11:18:37;;;;;;;4.30;2.88;;;25.40;79.90;;;;;;5015043;28;20216;-93
2023/06/19 11:21:03;;;;;;;2.83;2.53;;;25.50;74.50;;;;;;4996929;28;20363;-90
2023/06/19 11:23:30;;;;;;;3.13;2.58;;;25.80;73.30;;;;;;4998214;28;20169;-90
2023/06/19 11:26:05;;;;;;;3.38;2.58;;;25.80;69.10;;;;;;5015018;28;20181;-92
2023/06/19 11:28:32;;;;;;;7.30;2.42;;;25.80;70.80;;;;;;5015617;28;20230;-91
2023/06/19 11:31:04;;;;;;;2.90;2.35;;;25.60;72.00;;;;;;4997361;28;20182;-92
2023/06/19 11:33:30;;;;;;;2.38;2.17;;;25.50;70.80;;;;;;5016395;28;20260;-92
2023/06/19 11:36:00;;;;;;;2.38;2.15;;;25.70;75.80;;;;;;5017783;28;20213;-93
2023/06/19 11:38:26;;;;;;;3.15;2.65;;;25.90;72.10;;;;;;5016247;28;20615;-91
2023/06/19 11:40:54;;;;;;;2.92;2.55;;;26.00;71.50;;;;;;5000614;28;20209;-91
2023/06/19 11:43:31;;;;;;;2.85;2.28;;;25.90;70.70;;;;;;5015078;28;20339;-92
2023/06/19 11:46:10;;;;;;;2.22;2.03;;;25.80;67.70;;;;;;5018139;28;20177;-92
2023/06/19 11:48:38;;;;;;;3.08;2.30;;;25.90;72.20;;;;;;4998081;28;20177;-92
2023/06/19 11:51:04;;;;;;;3.00;2.40;;;26.10;69.10;;;;;;4997416;28;20530;-89
2023/06/19 11:53:30;;;;;;;3.92;2.55;;;26.20;72.30;;;;;;4996370;28;20188;-89
2023/06/19 11:55:56;;;;;;;3.35;2.63;;;26.20;71.60;;;;;;4996697;28;20650;-90
2023/06/19 11:58:22;;;;;;;2.88;2.40;;;25.90;72.10;;;;;;5013985;28;20181;-90
2023/06/19 12:00:48;;;;;;;5.30;2.80;;;25.40;73.30;;;;;;5014073;28;20541;-91
2023/06/19 12:03:14;;;;;;;5.07;2.60;;;24.90;73.90;;;;;;5014704;28;20209;-91
2023/06/19 12:05:40;;;;;;;4.43;2.60;;;24.70;74.80;;;;;;4996899;28;20279;-91
2023/06/19 12:08:06;;;;;;;2.92;2.60;;;24.60;71.90;;;;;;5014853;28;20630;-88
2023/06/19 12:10:33;;;;;;;2.83;2.42;;;24.70;74.90;;;;;;4997980;28;20188;-92
2023/06/19 12:12:58;;;;;;;3.05;2.50;;;25.00;73.80;;;;;;5014346;28;20180;-92
2023/06/19 12:15:25;;;;;;;2.55;2.33;;;25.30;73.90;;;;;;4988798;28;20165;-92
2023/06/19 12:17:51;;;;;;;2.75;2.35;;;25.50;72.40;;;;;;5020444;28;20177;-94
2023/06/19 12:20:40;;;;;;;3.25;2.75;;;25.80;69.60;;;;;;5016774;28;20225;-91
2023/06/19 12:23:06;;;;;;;2.95;2.40;;;25.80;68.60;;;;;;5013799;28;20204;-93
2023/06/19 12:25:31;;;;;;;3.20;2.50;;;25.90;70.80;;;;;;4996181;28;20185;-92
2023/06/19 12:27:57;;;;;;;2.70;2.40;;;26.00;72.50;;;;;;5020359;28;20232;-91
2023/06/19 12:30:23;;;;;;;2.50;2.30;;;26.10;71.20;;;;;;5017371;28;20232;-91
2023/06/19 12:32:49;;;;;;;2.60;2.15;;;26.20;68.00;;;;;;5034117;28;20189;-92
2023/06/19 12:35:15;;;;;;;2.20;2.00;;;26.00;67.50;;;;;;5017497;28;20201;-92
2023/06/19 12:37:41;;;;;;;3.10;2.42;;;25.80;68.30;;;;;;5003395;28;20188;-91
2023/06/19 12:40:10;;;;;;;2.50;2.28;;;25.60;68.70;;;;;;4998611;28;20205;-92
2023/06/19 12:42:37;;;;;;;4.97;1.85;;;25.70;66.90;;;;;;4999245;28;20209;-93
2023/06/19 12:45:03;;;;;;;2.50;1.77;;;25.70;66.60;;;;;;5029227;28;20183;-92